createdAt,value
2023-04-17T00:00:08.272Z,17.43
2023-04-17T00:02:38.582Z,16.93
2023-04-17T00:05:08.395Z,16.73
2023-04-17T00:07:38.711Z,15.73
2023-04-17T00:10:10.798Z,16.47
2023-04-17T00:12:37.838Z,18.10
2023-04-17T00:15:05.011Z,16.93
2023-04-17T00:17:31.762Z,18.90
2023-04-17T00:19:58.380Z,17.90
2023-04-17T00:22:25.167Z,16.30
2023-04-17T00:24:51.772Z,18.33
2023-04-17T00:27:18.471Z,16.90
2023-04-17T00:29:45.117Z,16.53
2023-04-17T00:32:11.871Z,16.73
2023-04-17T00:34:40.399Z,16.87
2023-04-17T00:37:07.036Z,17.13
2023-04-17T00:39:33.696Z,16.63
2023-04-17T00:42:00.706Z,17.20
2023-04-17T00:44:27.374Z,17.10
2023-04-17T00:46:54.137Z,18.43
2023-04-17T00:49:20.799Z,18.00
2023-04-17T00:51:47.762Z,17.73
2023-04-17T00:54:14.808Z,18.40
2023-04-17T00:56:44.496Z,17.43
2023-04-17T00:59:17.700Z,17.73
2023-04-17T01:01:44.826Z,19.57
2023-04-17T01:04:12.176Z,18.43
2023-04-17T01:06:38.933Z,16.37
2023-04-17T01:09:06.338Z,17.20
2023-04-17T01:11:33.033Z,18.30
2023-04-17T01:13:59.678Z,18.20
2023-04-17T01:16:26.353Z,18.60
2023-04-17T01:18:52.999Z,18.40
2023-04-17T01:21:19.684Z,18.30
2023-04-17T01:23:53.159Z,17.70
2023-04-17T01:26:24.068Z,17.20
2023-04-17T01:28:51.838Z,17.80
2023-04-17T01:31:18.521Z,18.33
2023-04-17T01:33:45.432Z,18.53
2023-04-17T01:36:12.261Z,18.30
2023-04-17T01:38:39.568Z,18.20
2023-04-17T01:41:09.934Z,17.83
2023-04-17T01:43:47.153Z,17.43
2023-04-17T01:46:13.939Z,19.13
2023-04-17T01:48:40.931Z,17.57
2023-04-17T01:51:07.643Z,17.80
2023-04-17T01:53:35.074Z,19.13
2023-04-17T01:56:02.008Z,19.87
2023-04-17T01:58:29.136Z,19.87
2023-04-17T02:00:55.899Z,18.67
2023-04-17T02:03:24.408Z,18.30
2023-04-17T02:05:53.272Z,18.97
2023-04-17T02:08:19.965Z,18.87
2023-04-17T02:10:46.661Z,19.70
2023-04-17T02:13:13.603Z,17.80
2023-04-17T02:15:40.429Z,20.70
2023-04-17T02:18:07.214Z,19.20
2023-04-17T02:20:35.058Z,19.00
2023-04-17T02:23:03.067Z,18.87
2023-04-17T02:25:29.978Z,19.70
2023-04-17T02:27:57.293Z,18.10
2023-04-17T02:30:25.599Z,19.13
2023-04-17T02:32:54.662Z,21.27
2023-04-17T02:35:22.998Z,20.20
2023-04-17T02:37:49.738Z,20.80
2023-04-17T02:40:16.554Z,20.83
2023-04-17T02:42:43.260Z,20.27
2023-04-17T02:45:10.934Z,20.03
2023-04-17T02:47:38.089Z,23.00
2023-04-17T02:50:05.306Z,20.00
2023-04-17T02:52:32.846Z,20.87
2023-04-17T02:54:59.559Z,19.90
2023-04-17T02:57:26.322Z,21.07
2023-04-17T02:59:53.021Z,19.63
2023-04-17T03:02:22.960Z,21.80
2023-04-17T03:04:50.396Z,18.70
2023-04-17T03:07:18.757Z,19.77
2023-04-17T03:09:48.797Z,20.43
2023-04-17T03:12:16.723Z,21.50
2023-04-17T03:14:43.920Z,22.73
2023-04-17T03:17:11.799Z,21.03
2023-04-17T03:19:38.562Z,21.80
2023-04-17T03:22:05.776Z,20.90
2023-04-17T03:24:32.842Z,21.47
2023-04-17T03:27:00.974Z,22.70
2023-04-17T03:29:27.777Z,23.07
2023-04-17T03:31:54.480Z,21.73
2023-04-17T03:34:21.749Z,23.97
2023-04-17T03:36:48.732Z,22.87
2023-04-17T03:39:15.915Z,22.57
2023-04-17T03:41:42.531Z,22.43
2023-04-17T03:44:09.882Z,23.97
2023-04-17T03:46:37.309Z,23.87
2023-04-17T03:49:04.056Z,22.73
2023-04-17T03:51:31.760Z,23.70
2023-04-17T03:53:58.557Z,24.20
2023-04-17T03:56:25.832Z,22.40
2023-04-17T03:58:52.514Z,25.97
2023-04-17T04:01:19.348Z,24.57
2023-04-17T04:03:46.205Z,24.40
2023-04-17T04:06:13.106Z,26.03
2023-04-17T04:08:40.422Z,26.53
2023-04-17T04:11:07.180Z,24.40
2023-04-17T04:13:34.174Z,24.80
2023-04-17T04:16:00.899Z,24.63
2023-04-17T04:18:27.703Z,25.80
2023-04-17T04:20:54.428Z,25.93
2023-04-17T04:23:21.314Z,25.07
2023-04-17T04:25:49.615Z,26.50
2023-04-17T04:28:17.818Z,27.33
2023-04-17T04:30:50.350Z,26.17
2023-04-17T04:33:20.907Z,24.90
2023-04-17T04:35:48.567Z,25.57
2023-04-17T04:38:17.071Z,28.00
2023-04-17T04:40:50.023Z,25.50
2023-04-17T04:43:16.767Z,25.83
2023-04-17T04:45:43.476Z,29.70
2023-04-17T04:48:10.199Z,26.30
2023-04-17T04:50:36.902Z,26.77
2023-04-17T04:53:03.557Z,25.70
2023-04-17T04:55:30.590Z,28.67
2023-04-17T04:57:57.576Z,26.23
2023-04-17T05:00:24.894Z,27.83
2023-04-17T05:02:51.812Z,27.30
2023-04-17T05:05:18.616Z,26.53
2023-04-17T05:07:45.359Z,26.97
2023-04-17T05:10:12.086Z,27.13
2023-04-17T05:12:38.902Z,28.30
2023-04-17T05:15:06.344Z,27.30
2023-04-17T05:17:33.074Z,27.60
2023-04-17T05:19:59.714Z,28.23
2023-04-17T05:22:27.538Z,26.70
2023-04-17T05:24:54.201Z,27.77
2023-04-17T05:27:20.878Z,28.03
2023-04-17T05:29:47.478Z,27.73
2023-04-17T05:32:14.099Z,26.57
2023-04-17T05:34:40.980Z,27.50
2023-04-17T05:37:07.607Z,27.80
2023-04-17T05:39:34.334Z,26.43
2023-04-17T05:42:01.531Z,29.10
2023-04-17T05:44:28.180Z,27.37
2023-04-17T05:46:57.298Z,27.23
2023-04-17T05:49:23.902Z,31.07
2023-04-17T05:51:50.687Z,26.93
2023-04-17T05:54:18.035Z,28.50
2023-04-17T05:56:44.720Z,28.60
2023-04-17T05:59:11.546Z,28.30
2023-04-17T06:01:39.522Z,27.97
2023-04-17T06:04:06.863Z,28.43
2023-04-17T06:06:33.968Z,28.13
2023-04-17T06:09:00.864Z,29.07
2023-04-17T06:11:27.667Z,28.30
2023-04-17T06:13:54.284Z,29.63
2023-04-17T06:16:20.908Z,29.10
2023-04-17T06:18:47.566Z,28.83
2023-04-17T06:21:14.221Z,26.53
2023-04-17T06:23:40.904Z,27.70
2023-04-17T06:26:07.703Z,27.67
2023-04-17T06:28:34.392Z,25.23
2023-04-17T06:31:01.131Z,26.93
2023-04-17T06:33:27.817Z,26.60
2023-04-17T06:35:54.430Z,25.67
2023-04-17T06:38:21.070Z,25.30
2023-04-17T06:40:47.808Z,24.20
2023-04-17T06:43:17.297Z,25.10
2023-04-17T06:45:44.049Z,25.00
2023-04-17T06:48:10.827Z,24.33
2023-04-17T06:50:37.437Z,25.27
2023-04-17T06:53:04.094Z,25.60
2023-04-17T06:55:30.732Z,24.83
2023-04-17T06:57:57.378Z,25.70
2023-04-17T07:00:24.171Z,24.27
2023-04-17T07:02:51.463Z,23.30
2023-04-17T07:05:18.204Z,24.37
2023-04-17T07:07:44.864Z,22.33
2023-04-17T07:10:11.781Z,23.40
2023-04-17T07:12:38.649Z,21.77
2023-04-17T07:15:05.939Z,22.50
2023-04-17T07:17:32.687Z,21.63
2023-04-17T07:19:59.408Z,20.37
2023-04-17T07:22:27.362Z,20.57
2023-04-17T07:24:54.191Z,22.00
2023-04-17T07:27:21.635Z,21.73
2023-04-17T07:29:54.233Z,20.10
2023-04-17T07:32:24.116Z,22.50
2023-04-17T07:34:50.798Z,20.40
2023-04-17T07:37:17.437Z,19.10
2023-04-17T07:39:44.999Z,19.07
2023-04-17T07:42:11.589Z,20.50
2023-04-17T07:44:39.060Z,20.77
2023-04-17T07:47:05.906Z,21.10
2023-04-17T07:49:32.864Z,18.67
2023-04-17T07:51:59.751Z,18.83
2023-04-17T07:54:27.774Z,18.93
2023-04-17T07:56:58.146Z,18.40
2023-04-17T07:59:24.813Z,18.53
2023-04-17T08:01:52.495Z,16.30
2023-04-17T08:04:19.676Z,17.63
2023-04-17T08:06:46.493Z,17.07
2023-04-17T08:09:13.506Z,16.60
2023-04-17T08:11:53.237Z,16.00
2023-04-17T08:14:23.569Z,15.03
2023-04-17T08:16:50.394Z,15.00
2023-04-17T08:19:17.150Z,16.70
2023-04-17T08:21:43.871Z,14.60
2023-04-17T08:24:10.600Z,16.30
2023-04-17T08:26:37.205Z,15.00
2023-04-17T08:29:04.652Z,14.83
2023-04-17T08:31:31.852Z,51.63
2023-04-17T08:34:12.938Z,16.83
2023-04-17T08:36:41.006Z,14.10
2023-04-17T08:39:09.942Z,15.40
2023-04-17T08:41:45.021Z,15.23
2023-04-17T08:44:11.781Z,14.30
2023-04-17T08:46:40.656Z,14.20
2023-04-17T08:49:07.465Z,14.97
2023-04-17T08:51:35.397Z,15.77
2023-04-17T08:54:02.031Z,12.70
2023-04-17T08:56:29.219Z,13.20
2023-04-17T08:58:55.863Z,12.97
2023-04-17T09:01:22.705Z,12.13
2023-04-17T09:03:51.930Z,13.03
2023-04-17T09:06:18.832Z,12.10
2023-04-17T09:09:00.356Z,13.17
2023-04-17T09:11:27.418Z,11.83
2023-04-17T09:13:54.473Z,12.90
2023-04-17T09:16:21.311Z,12.43
2023-04-17T09:18:49.258Z,10.70
2023-04-17T09:21:18.708Z,11.60
2023-04-17T09:23:51.737Z,11.90
2023-04-17T09:26:21.031Z,10.50
2023-04-17T09:29:11.865Z,11.23
2023-04-17T09:31:41.246Z,11.10
2023-04-17T09:34:13.456Z,11.20
2023-04-17T09:36:43.144Z,11.23
2023-04-17T09:39:25.688Z,10.30
2023-04-17T09:42:10.418Z,10.07
2023-04-17T09:44:37.926Z,9.40
2023-04-17T09:47:05.018Z,9.43
2023-04-17T09:49:44.781Z,14.60
2023-04-17T09:52:12.306Z,16.73
2023-04-17T09:54:40.502Z,9.00
2023-04-17T09:57:09.285Z,10.10
2023-04-17T09:59:41.532Z,9.90
2023-04-17T10:02:09.635Z,8.37
2023-04-17T10:04:39.408Z,8.97
2023-04-17T10:07:06.477Z,11.03
2023-04-17T10:09:33.148Z,8.40
2023-04-17T10:12:02.065Z,7.00
2023-04-17T10:14:32.670Z,7.40
2023-04-17T10:16:59.365Z,9.10
2023-04-17T10:19:32.480Z,9.33
2023-04-17T10:22:20.197Z,8.83
2023-04-17T10:24:54.128Z,9.40
2023-04-17T10:27:26.986Z,8.70
2023-04-17T10:30:01.661Z,8.90
2023-04-17T10:32:29.350Z,10.50
2023-04-17T10:34:58.006Z,8.90
2023-04-17T10:37:52.699Z,10.70
2023-04-17T10:40:38.738Z,10.07
2023-04-17T10:43:23.006Z,10.70
2023-04-17T10:45:59.355Z,9.80
2023-04-17T10:48:38.927Z,9.50
2023-04-17T10:51:24.202Z,9.43
2023-04-17T10:54:02.054Z,10.40
2023-04-17T10:56:30.839Z,10.27
2023-04-17T10:59:05.027Z,11.07
2023-04-17T11:01:37.607Z,12.17
2023-04-17T11:04:06.117Z,10.80
2023-04-17T11:06:37.731Z,9.87
2023-04-17T11:09:08.356Z,9.70
2023-04-17T11:11:44.592Z,10.27
2023-04-17T11:14:17.625Z,8.53
2023-04-17T11:16:46.797Z,8.40
2023-04-17T11:19:19.080Z,9.80
2023-04-17T11:21:48.898Z,7.50
2023-04-17T11:24:29.926Z,8.37
2023-04-17T11:26:59.618Z,7.80
2023-04-17T11:29:27.152Z,7.43
2023-04-17T11:31:56.173Z,7.17
2023-04-17T11:34:22.987Z,7.20
2023-04-17T11:36:54.178Z,6.97
2023-04-17T11:39:22.717Z,6.13
2023-04-17T11:41:51.426Z,6.00
2023-04-17T11:44:22.233Z,8.20
2023-04-17T11:46:53.452Z,10.60
2023-04-17T11:49:27.404Z,5.73
2023-04-17T11:51:55.286Z,5.40
2023-04-17T11:54:28.035Z,5.00
2023-04-17T11:57:06.494Z,6.57
2023-04-17T11:59:38.353Z,5.90
2023-04-17T12:02:07.296Z,5.90
2023-04-17T12:04:35.840Z,5.77
2023-04-17T12:07:06.874Z,6.03
2023-04-17T12:09:34.484Z,5.73
2023-04-17T12:12:05.383Z,7.43
2023-04-17T12:14:32.565Z,6.50
2023-04-17T12:16:59.370Z,6.90
2023-04-17T12:19:29.150Z,8.70
2023-04-17T12:21:56.532Z,7.73
2023-04-17T12:24:24.852Z,7.20
2023-04-17T12:26:52.379Z,7.30
2023-04-17T12:29:26.476Z,7.10
2023-04-17T12:32:03.412Z,7.00
2023-04-17T12:34:30.249Z,6.90
2023-04-17T12:36:56.855Z,7.30
2023-04-17T12:39:23.524Z,6.90
2023-04-17T12:41:50.182Z,7.10
2023-04-17T12:44:16.784Z,7.07
2023-04-17T12:46:43.397Z,7.33
2023-04-17T12:49:10.238Z,6.50
2023-04-17T12:51:37.945Z,8.07
2023-04-17T12:54:04.865Z,8.60
2023-04-17T12:56:31.713Z,7.30
2023-04-17T12:58:59.409Z,7.10
2023-04-17T13:01:28.054Z,7.50
2023-04-17T13:03:54.928Z,7.50
2023-04-17T13:06:21.783Z,7.33
2023-04-17T13:08:48.468Z,6.20
2023-04-17T13:11:15.083Z,6.67
2023-04-17T13:13:41.705Z,4.80
2023-04-17T13:16:10.268Z,5.87
2023-04-17T13:18:37.519Z,7.63
2023-04-17T13:21:04.303Z,5.40
2023-04-17T13:23:31.208Z,5.37
2023-04-17T13:25:57.860Z,5.90
2023-04-17T13:28:24.574Z,7.63
2023-04-17T13:30:51.317Z,6.77
2023-04-17T13:33:17.980Z,5.87
2023-04-17T13:35:44.633Z,5.40
2023-04-17T13:38:11.265Z,6.33
2023-04-17T13:40:38.538Z,5.30
2023-04-17T13:43:06.641Z,5.43
2023-04-17T13:45:33.385Z,4.77
2023-04-17T13:48:00.303Z,5.70
2023-04-17T13:50:27.284Z,5.10
2023-04-17T13:52:53.942Z,4.90
2023-04-17T13:55:20.596Z,5.20
2023-04-17T13:57:47.257Z,4.33
2023-04-17T14:00:14.709Z,3.97
2023-04-17T14:02:41.706Z,8.70
2023-04-17T14:05:09.023Z,12.30
2023-04-17T14:07:35.964Z,3.87
2023-04-17T14:10:02.760Z,4.70
2023-04-17T14:12:29.543Z,4.33
2023-04-17T14:14:58.104Z,4.53
2023-04-17T14:17:25.111Z,5.83
2023-04-17T14:19:52.500Z,4.73
2023-04-17T14:22:20.012Z,5.50
2023-04-17T14:24:46.641Z,5.67
2023-04-17T14:27:13.218Z,5.60
2023-04-17T14:29:39.857Z,5.87
2023-04-17T14:32:06.525Z,4.87
2023-04-17T14:34:33.252Z,5.53
2023-04-17T14:36:59.974Z,5.00
2023-04-17T14:39:27.329Z,5.43
2023-04-17T14:41:55.051Z,5.20
2023-04-17T14:44:21.647Z,5.63
2023-04-17T14:46:48.724Z,6.40
2023-04-17T14:49:15.707Z,5.73
2023-04-17T14:51:42.345Z,5.70
2023-04-17T14:54:09.059Z,5.77
2023-04-17T14:56:35.702Z,6.50
2023-04-17T14:59:02.883Z,6.10
2023-04-17T15:01:29.588Z,6.03
2023-04-17T15:03:56.631Z,5.87
2023-04-17T15:06:23.461Z,5.53
2023-04-17T15:08:50.114Z,5.37
2023-04-17T15:11:16.727Z,5.63
2023-04-17T15:13:43.319Z,6.60
2023-04-17T15:16:10.582Z,6.50
2023-04-17T15:18:39.200Z,5.60
2023-04-17T15:21:06.387Z,6.30
2023-04-17T15:23:34.519Z,25.13
2023-04-17T15:26:01.365Z,5.80
2023-04-17T15:28:28.211Z,6.50
2023-04-17T15:30:55.836Z,6.57
2023-04-17T15:33:22.597Z,6.43
2023-04-17T15:35:58.448Z,7.73
2023-04-17T15:38:26.012Z,6.50
2023-04-17T15:40:53.148Z,6.60
2023-04-17T15:43:20.115Z,6.00
2023-04-17T15:45:49.788Z,6.97
2023-04-17T15:48:16.491Z,7.27
2023-04-17T15:50:43.577Z,5.40
2023-04-17T15:53:10.250Z,5.53
2023-04-17T15:55:37.078Z,7.27
2023-04-17T15:58:03.796Z,6.40
2023-04-17T16:00:30.563Z,5.47
2023-04-17T16:02:57.289Z,5.70
2023-04-17T16:05:24.038Z,6.73
2023-04-17T16:07:50.694Z,7.30
2023-04-17T16:10:18.858Z,6.27
2023-04-17T16:12:46.369Z,6.20
2023-04-17T16:15:15.092Z,6.47
2023-04-17T16:17:41.886Z,6.30
2023-04-17T16:20:09.484Z,5.93
2023-04-17T16:22:36.404Z,6.37
2023-04-17T16:25:03.832Z,5.07
2023-04-17T16:27:32.874Z,6.20
2023-04-17T16:29:59.658Z,5.07
2023-04-17T16:32:27.558Z,7.27
2023-04-17T16:34:54.358Z,6.10
2023-04-17T16:37:21.172Z,5.83
2023-04-17T16:39:48.315Z,4.77
2023-04-17T16:42:14.927Z,6.17
2023-04-17T16:44:41.567Z,5.83
2023-04-17T16:47:13.582Z,6.93
2023-04-17T16:49:41.447Z,6.10
2023-04-17T16:52:08.148Z,5.10
2023-04-17T16:54:34.859Z,6.83
2023-04-17T16:57:01.628Z,6.70
2023-04-17T16:59:28.274Z,6.53
2023-04-17T17:01:54.961Z,6.93
2023-04-17T17:04:21.685Z,8.00
2023-04-17T17:06:48.343Z,6.90
2023-04-17T17:09:15.293Z,6.47
2023-04-17T17:11:42.112Z,6.40
2023-04-17T17:14:09.010Z,7.13
2023-04-17T17:16:36.681Z,6.67
2023-04-17T17:19:03.543Z,6.60
2023-04-17T17:21:31.077Z,6.60
2023-04-17T17:23:57.818Z,7.40
2023-04-17T17:26:24.891Z,6.90
2023-04-17T17:28:53.144Z,6.63
2023-04-17T17:31:20.120Z,7.07
2023-04-17T17:33:50.010Z,6.70
2023-04-17T17:36:17.362Z,5.60
2023-04-17T17:38:44.334Z,7.50
2023-04-17T17:41:11.061Z,7.47
2023-04-17T17:43:37.731Z,7.57
2023-04-17T17:46:04.380Z,7.63
2023-04-17T17:48:31.035Z,7.73
2023-04-17T17:50:57.853Z,7.10
2023-04-17T17:53:26.910Z,7.33
2023-04-17T17:55:55.567Z,7.80
2023-04-17T17:58:22.565Z,7.90
2023-04-17T18:00:50.274Z,8.10
2023-04-17T18:03:17.563Z,8.60
2023-04-17T18:05:46.476Z,7.50
2023-04-17T18:08:13.733Z,8.37
2023-04-17T18:10:40.371Z,9.30
2023-04-17T18:13:06.975Z,8.60
2023-04-17T18:15:33.677Z,8.20
2023-04-17T18:18:00.536Z,7.30
2023-04-17T18:20:27.268Z,6.80
2023-04-17T18:22:53.968Z,7.23
2023-04-17T18:25:20.830Z,6.40
2023-04-17T18:27:47.463Z,7.50
2023-04-17T18:30:14.814Z,6.77
2023-04-17T18:32:41.459Z,6.13
2023-04-17T18:35:08.575Z,5.77
2023-04-17T18:37:35.385Z,6.50
2023-04-17T18:40:02.019Z,6.43
2023-04-17T18:42:28.778Z,6.53
2023-04-17T18:44:55.369Z,6.00
2023-04-17T18:47:21.950Z,6.97
2023-04-17T18:49:52.189Z,6.10
2023-04-17T18:52:19.176Z,6.03
2023-04-17T18:54:45.917Z,5.93
2023-04-17T18:57:12.608Z,6.33
2023-04-17T18:59:40.469Z,6.70
2023-04-17T19:02:08.035Z,6.20
2023-04-17T19:04:34.814Z,6.40
2023-04-17T19:07:02.748Z,6.00
2023-04-17T19:09:29.379Z,7.30
2023-04-17T19:11:56.414Z,6.27
2023-04-17T19:14:23.091Z,7.50
2023-04-17T19:16:49.795Z,6.60
2023-04-17T19:19:16.432Z,7.63
2023-04-17T19:21:43.041Z,7.20
2023-04-17T19:24:09.892Z,7.20
2023-04-17T19:26:36.898Z,6.87
2023-04-17T19:29:04.704Z,7.60
2023-04-17T19:31:32.180Z,8.00
2023-04-17T19:33:59.316Z,7.37
2023-04-17T19:36:27.471Z,7.40
2023-04-17T19:38:59.613Z,7.10
2023-04-17T19:41:26.525Z,7.73
2023-04-17T19:43:54.130Z,7.53
2023-04-17T19:46:22.266Z,8.70
2023-04-17T19:48:49.438Z,7.77
2023-04-17T19:51:16.707Z,8.17
2023-04-17T19:53:45.495Z,6.80
2023-04-17T19:56:12.145Z,8.10
2023-04-17T19:58:40.034Z,8.60
2023-04-17T20:01:06.881Z,8.40
2023-04-17T20:03:34.147Z,7.97
2023-04-17T20:06:01.051Z,8.90
2023-04-17T20:08:27.688Z,9.37
2023-04-17T20:10:54.373Z,9.27
2023-04-17T20:13:21.429Z,9.40
2023-04-17T20:15:48.235Z,8.40
2023-04-17T20:18:15.008Z,8.00
2023-04-17T20:20:41.649Z,8.67
2023-04-17T20:23:08.360Z,9.00
2023-04-17T20:25:35.063Z,8.43
2023-04-17T20:28:04.773Z,9.07
2023-04-17T20:30:31.543Z,9.60
2023-04-17T20:32:58.349Z,9.27
2023-04-17T20:35:25.088Z,10.27
2023-04-17T20:37:52.496Z,10.57
2023-04-17T20:40:19.741Z,10.67
2023-04-17T20:42:47.370Z,10.03
2023-04-17T20:45:14.350Z,9.10
2023-04-17T20:47:56.083Z,10.43
2023-04-17T20:50:24.559Z,8.30
2023-04-17T20:52:51.252Z,10.37
2023-04-17T20:55:19.707Z,9.60
2023-04-17T20:57:46.691Z,10.03
2023-04-17T21:00:13.796Z,10.10
2023-04-17T21:02:40.693Z,9.53
2023-04-17T21:05:08.176Z,10.50
2023-04-17T21:07:34.994Z,10.80
2023-04-17T21:10:01.914Z,11.00
2023-04-17T21:12:28.665Z,10.20
2023-04-17T21:14:55.285Z,10.90
2023-04-17T21:17:22.024Z,9.60
2023-04-17T21:19:49.293Z,10.67
2023-04-17T21:22:16.189Z,10.33
2023-04-17T21:24:43.062Z,10.60
2023-04-17T21:27:10.370Z,11.10
2023-04-17T21:29:37.500Z,10.43
2023-04-17T21:32:04.679Z,11.23
2023-04-17T21:34:31.489Z,10.50
2023-04-17T21:37:01.244Z,12.10
2023-04-17T21:39:27.879Z,10.87
2023-04-17T21:41:54.494Z,11.50
2023-04-17T21:44:21.137Z,11.00
2023-04-17T21:46:47.774Z,9.80
2023-04-17T21:49:14.402Z,11.00
2023-04-17T21:51:41.017Z,12.27
2023-04-17T21:54:08.949Z,10.53
2023-04-17T21:56:36.174Z,9.80
2023-04-17T21:59:03.133Z,11.70
2023-04-17T22:01:29.868Z,11.07
2023-04-17T22:03:56.673Z,11.20
2023-04-17T22:06:23.553Z,10.23
2023-04-17T22:08:50.181Z,12.00
2023-04-17T22:11:16.821Z,11.93
2023-04-17T22:13:44.908Z,10.97
2023-04-17T22:16:11.566Z,10.57
2023-04-17T22:18:38.260Z,11.80
2023-04-17T22:21:05.433Z,10.23
2023-04-17T22:23:32.019Z,11.47
2023-04-17T22:25:58.617Z,12.60
2023-04-17T22:28:28.099Z,11.13
2023-04-17T22:30:54.780Z,10.17
2023-04-17T22:33:21.484Z,10.50
2023-04-17T22:35:49.057Z,10.60
2023-04-17T22:38:16.100Z,12.40
2023-04-17T22:40:42.700Z,11.67
2023-04-17T22:43:09.338Z,11.63
2023-04-17T22:45:35.977Z,11.20
2023-04-17T22:48:02.920Z,11.30
2023-04-17T22:50:30.556Z,10.37
2023-04-17T22:52:57.266Z,12.53
2023-04-17T22:55:24.056Z,11.43
2023-04-17T22:57:50.742Z,11.40
2023-04-17T23:00:19.973Z,12.17
2023-04-17T23:02:47.354Z,12.40
2023-04-17T23:05:14.330Z,12.13
2023-04-17T23:07:41.258Z,12.60
2023-04-17T23:10:08.283Z,12.17
2023-04-17T23:12:34.940Z,13.47
2023-04-17T23:15:01.738Z,12.97
2023-04-17T23:17:28.566Z,14.00
2023-04-17T23:19:55.628Z,13.50
2023-04-17T23:22:22.489Z,14.27
2023-04-17T23:24:49.147Z,13.43
2023-04-17T23:27:15.816Z,12.67
2023-04-17T23:29:42.444Z,14.60
2023-04-17T23:32:09.317Z,15.20
2023-04-17T23:34:36.140Z,15.80
2023-04-17T23:37:03.290Z,15.20
2023-04-17T23:39:29.962Z,16.47
2023-04-17T23:41:57.549Z,16.77
2023-04-17T23:44:24.155Z,15.10
2023-04-17T23:46:51.360Z,17.97
2023-04-17T23:49:18.287Z,15.53
2023-04-17T23:51:45.088Z,15.27
2023-04-17T23:54:12.276Z,15.97
2023-04-17T23:56:39.073Z,17.10
2023-04-17T23:59:05.718Z,17.20
